sensor_id;sensor_type;location;lat;lon;timestamp;temperature;humidity
11764;DHT22;5939;56.522;14.950;2022-12-24T00:00:31;2.10;99.90
11764;DHT22;5939;56.522;14.950;2022-12-24T00:02:57;2.20;99.90
11764;DHT22;5939;56.522;14.950;2022-12-24T00:05:22;2.10;99.90
11764;DHT22;5939;56.522;14.950;2022-12-24T00:07:48;2.10;99.90
11764;DHT22;5939;56.522;14.950;2022-12-24T00:10:14;2.10;99.90
11764;DHT22;5939;56.522;14.950;2022-12-24T00:12:39;2.10;99.90
11764;DHT22;5939;56.522;14.950;2022-12-24T00:15:06;2.10;99.90
11764;DHT22;5939;56.522;14.950;2022-12-24T00:17:32;2.10;99.90
11764;DHT22;5939;56.522;14.950;2022-12-24T00:19:57;2.10;99.90
11764;DHT22;5939;56.522;14.950;2022-12-24T00:22:23;2.00;99.90
11764;DHT22;5939;56.522;14.950;2022-12-24T00:24:49;2.00;99.90
11764;DHT22;5939;56.522;14.950;2022-12-24T00:27:14;2.00;99.90
11764;DHT22;5939;56.522;14.950;2022-12-24T00:29:40;2.00;99.90
11764;DHT22;5939;56.522;14.950;2022-12-24T00:32:06;2.00;99.90
11764;DHT22;5939;56.522;14.950;2022-12-24T00:34:35;2.00;99.90
11764;DHT22;5939;56.522;14.950;2022-12-24T00:37:01;1.90;99.90
11764;DHT22;5939;56.522;14.950;2022-12-24T00:39:26;1.90;99.90
11764;DHT22;5939;56.522;14.950;2022-12-24T00:41:52;1.90;99.90
11764;DHT22;5939;56.522;14.950;2022-12-24T00:44:18;1.90;99.90
11764;DHT22;5939;56.522;14.950;2022-12-24T00:46:43;1.90;99.90
11764;DHT22;5939;56.522;14.950;2022-12-24T00:49:11;1.90;99.90
11764;DHT22;5939;56.522;14.950;2022-12-24T00:51:36;1.90;99.90
11764;DHT22;5939;56.522;14.950;2022-12-24T00:54:02;1.90;99.90
11764;DHT22;5939;56.522;14.950;2022-12-24T00:56:28;1.90;99.90
11764;DHT22;5939;56.522;14.950;2022-12-24T00:58:54;1.80;99.90
11764;DHT22;5939;56.522;14.950;2022-12-24T01:01:20;1.90;99.90
11764;DHT22;5939;56.522;14.950;2022-12-24T01:03:46;1.80;99.90
11764;DHT22;5939;56.522;14.950;2022-12-24T01:06:18;1.80;99.90
11764;DHT22;5939;56.522;14.950;2022-12-24T01:08:44;1.80;99.90
11764;DHT22;5939;56.522;14.950;2022-12-24T01:11:10;1.80;99.90
11764;DHT22;5939;56.522;14.950;2022-12-24T01:13:36;1.80;99.90
11764;DHT22;5939;56.522;14.950;2022-12-24T01:16:03;1.70;99.90
11764;DHT22;5939;56.522;14.950;2022-12-24T01:18:28;1.70;99.90
11764;DHT22;5939;56.522;14.950;2022-12-24T01:20:59;1.70;99.90
11764;DHT22;5939;56.522;14.950;2022-12-24T01:23:25;1.70;99.90
11764;DHT22;5939;56.522;14.950;2022-12-24T01:25:51;1.70;99.90
11764;DHT22;5939;56.522;14.950;2022-12-24T01:28:18;1.70;99.90
11764;DHT22;5939;56.522;14.950;2022-12-24T01:30:43;1.70;99.90
11764;DHT22;5939;56.522;14.950;2022-12-24T01:33:09;1.60;99.90
11764;DHT22;5939;56.522;14.950;2022-12-24T01:35:39;1.70;99.90
11764;DHT22;5939;56.522;14.950;2022-12-24T01:38:04;1.60;99.90
11764;DHT22;5939;56.522;14.950;2022-12-24T01:40:30;1.60;99.90
11764;DHT22;5939;56.522;14.950;2022-12-24T01:43:17;1.60;99.90
11764;DHT22;5939;56.522;14.950;2022-12-24T01:46:01;1.60;99.90
11764;DHT22;5939;56.522;14.950;2022-12-24T01:51:34;1.50;99.90
11764;DHT22;5939;56.522;14.950;2022-12-24T01:54:34;1.50;99.90
11764;DHT22;5939;56.522;14.950;2022-12-24T01:57:08;1.50;99.90
11764;DHT22;5939;56.522;14.950;2022-12-24T01:59:36;1.50;99.90
11764;DHT22;5939;56.522;14.950;2022-12-24T02:02:03;1.50;99.90
11764;DHT22;5939;56.522;14.950;2022-12-24T02:04:52;1.50;99.90
11764;DHT22;5939;56.522;14.950;2022-12-24T02:07:20;1.50;99.90
11764;DHT22;5939;56.522;14.950;2022-12-24T02:09:48;1.40;99.90
11764;DHT22;5939;56.522;14.950;2022-12-24T02:12:16;1.40;99.90
11764;DHT22;5939;56.522;14.950;2022-12-24T02:14:42;1.40;99.90
11764;DHT22;5939;56.522;14.950;2022-12-24T02:17:25;1.40;99.90
11764;DHT22;5939;56.522;14.950;2022-12-24T02:23:14;1.40;99.90
11764;DHT22;5939;56.522;14.950;2022-12-24T02:31:39;1.30;99.90
11764;DHT22;5939;56.522;14.950;2022-12-24T02:34:13;1.30;99.90
11764;DHT22;5939;56.522;14.950;2022-12-24T02:39:22;1.30;99.90
11764;DHT22;5939;56.522;14.950;2022-12-24T02:41:52;1.30;99.90
11764;DHT22;5939;56.522;14.950;2022-12-24T02:44:35;1.30;99.90
11764;DHT22;5939;56.522;14.950;2022-12-24T02:47:05;1.20;99.90
11764;DHT22;5939;56.522;14.950;2022-12-24T02:49:31;1.20;99.90
11764;DHT22;5939;56.522;14.950;2022-12-24T02:51:56;1.20;99.90
11764;DHT22;5939;56.522;14.950;2022-12-24T02:54:22;1.20;99.90
11764;DHT22;5939;56.522;14.950;2022-12-24T02:57:22;1.20;99.90
11764;DHT22;5939;56.522;14.950;2022-12-24T03:00:11;1.20;99.90
11764;DHT22;5939;56.522;14.950;2022-12-24T03:05:29;1.10;99.90
11764;DHT22;5939;56.522;14.950;2022-12-24T03:08:10;1.10;99.90
11764;DHT22;5939;56.522;14.950;2022-12-24T03:13:12;1.10;99.90
11764;DHT22;5939;56.522;14.950;2022-12-24T03:15:39;1.00;99.90
11764;DHT22;5939;56.522;14.950;2022-12-24T03:18:07;1.10;99.90
11764;DHT22;5939;56.522;14.950;2022-12-24T03:20:36;1.00;99.90
11764;DHT22;5939;56.522;14.950;2022-12-24T03:23:03;1.00;99.90
11764;DHT22;5939;56.522;14.950;2022-12-24T03:25:31;1.00;99.90
11764;DHT22;5939;56.522;14.950;2022-12-24T03:27:58;1.00;99.90
11764;DHT22;5939;56.522;14.950;2022-12-24T03:30:26;1.00;99.90
11764;DHT22;5939;56.522;14.950;2022-12-24T03:32:51;0.90;99.90
11764;DHT22;5939;56.522;14.950;2022-12-24T03:35:17;0.90;99.90
11764;DHT22;5939;56.522;14.950;2022-12-24T03:37:43;0.90;99.90
11764;DHT22;5939;56.522;14.950;2022-12-24T03:40:09;0.90;99.90
11764;DHT22;5939;56.522;14.950;2022-12-24T03:42:35;0.90;99.90
11764;DHT22;5939;56.522;14.950;2022-12-24T03:45:01;0.90;99.90
11764;DHT22;5939;56.522;14.950;2022-12-24T03:47:26;0.90;99.90
11764;DHT22;5939;56.522;14.950;2022-12-24T03:49:52;0.80;99.90
11764;DHT22;5939;56.522;14.950;2022-12-24T03:52:17;0.80;99.90
11764;DHT22;5939;56.522;14.950;2022-12-24T03:54:43;0.80;99.90
11764;DHT22;5939;56.522;14.950;2022-12-24T03:57:09;0.80;99.90
11764;DHT22;5939;56.522;14.950;2022-12-24T03:59:34;0.80;99.90
11764;DHT22;5939;56.522;14.950;2022-12-24T04:02:00;0.80;99.90
11764;DHT22;5939;56.522;14.950;2022-12-24T04:04:26;0.80;99.90
11764;DHT22;5939;56.522;14.950;2022-12-24T04:06:51;0.80;99.90
11764;DHT22;5939;56.522;14.950;2022-12-24T04:09:17;0.80;99.90
11764;DHT22;5939;56.522;14.950;2022-12-24T04:11:42;0.70;99.90
11764;DHT22;5939;56.522;14.950;2022-12-24T04:14:08;0.70;99.90
11764;DHT22;5939;56.522;14.950;2022-12-24T04:16:34;0.70;99.90
11764;DHT22;5939;56.522;14.950;2022-12-24T04:18:59;0.70;99.90
11764;DHT22;5939;56.522;14.950;2022-12-24T04:21:25;0.70;99.90
11764;DHT22;5939;56.522;14.950;2022-12-24T04:23:50;0.70;99.90
11764;DHT22;5939;56.522;14.950;2022-12-24T04:26:16;0.60;99.90
11764;DHT22;5939;56.522;14.950;2022-12-24T04:28:42;0.60;99.90
11764;DHT22;5939;56.522;14.950;2022-12-24T04:31:11;0.60;99.90
11764;DHT22;5939;56.522;14.950;2022-12-24T04:33:37;0.60;99.90
11764;DHT22;5939;56.522;14.950;2022-12-24T04:36:04;0.60;99.90
11764;DHT22;5939;56.522;14.950;2022-12-24T04:38:30;0.60;99.90
11764;DHT22;5939;56.522;14.950;2022-12-24T04:41:17;0.60;99.90
11764;DHT22;5939;56.522;14.950;2022-12-24T04:43:43;0.60;99.90
11764;DHT22;5939;56.522;14.950;2022-12-24T04:46:17;0.60;99.90
11764;DHT22;5939;56.522;14.950;2022-12-24T04:48:44;0.60;99.90
11764;DHT22;5939;56.522;14.950;2022-12-24T04:51:10;0.50;99.90
11764;DHT22;5939;56.522;14.950;2022-12-24T04:53:37;0.50;99.90
11764;DHT22;5939;56.522;14.950;2022-12-24T04:56:06;0.50;99.90
11764;DHT22;5939;56.522;14.950;2022-12-24T04:58:32;0.50;99.90
11764;DHT22;5939;56.522;14.950;2022-12-24T05:01:05;0.50;99.90
11764;DHT22;5939;56.522;14.950;2022-12-24T05:03:31;0.50;99.90
11764;DHT22;5939;56.522;14.950;2022-12-24T05:06:05;0.40;99.90
11764;DHT22;5939;56.522;14.950;2022-12-24T05:08:30;0.40;99.90
11764;DHT22;5939;56.522;14.950;2022-12-24T05:10:57;0.40;99.90
11764;DHT22;5939;56.522;14.950;2022-12-24T05:13:23;0.40;99.90
11764;DHT22;5939;56.522;14.950;2022-12-24T05:15:49;0.40;99.90
11764;DHT22;5939;56.522;14.950;2022-12-24T05:18:15;0.40;99.90
11764;DHT22;5939;56.522;14.950;2022-12-24T05:20:41;0.40;99.90
11764;DHT22;5939;56.522;14.950;2022-12-24T05:23:06;0.30;99.90
11764;DHT22;5939;56.522;14.950;2022-12-24T05:25:50;0.40;99.90
11764;DHT22;5939;56.522;14.950;2022-12-24T05:28:34;0.30;99.90
11764;DHT22;5939;56.522;14.950;2022-12-24T05:31:00;0.30;99.90
11764;DHT22;5939;56.522;14.950;2022-12-24T05:33:26;0.30;99.90
11764;DHT22;5939;56.522;14.950;2022-12-24T05:35:51;0.30;99.90
11764;DHT22;5939;56.522;14.950;2022-12-24T05:38:17;0.30;99.90
11764;DHT22;5939;56.522;14.950;2022-12-24T05:40:43;0.30;99.90
11764;DHT22;5939;56.522;14.950;2022-12-24T05:43:08;0.20;99.90
11764;DHT22;5939;56.522;14.950;2022-12-24T05:45:34;0.20;99.90
11764;DHT22;5939;56.522;14.950;2022-12-24T05:48:00;0.20;99.90
11764;DHT22;5939;56.522;14.950;2022-12-24T05:50:25;0.20;99.90
11764;DHT22;5939;56.522;14.950;2022-12-24T05:52:51;0.20;99.90
11764;DHT22;5939;56.522;14.950;2022-12-24T05:55:16;0.20;99.90
11764;DHT22;5939;56.522;14.950;2022-12-24T05:57:42;0.20;99.90
11764;DHT22;5939;56.522;14.950;2022-12-24T06:00:08;0.20;99.90
11764;DHT22;5939;56.522;14.950;2022-12-24T06:02:34;0.20;99.90
11764;DHT22;5939;56.522;14.950;2022-12-24T06:04:59;0.10;99.90
11764;DHT22;5939;56.522;14.950;2022-12-24T06:07:25;0.10;99.90
11764;DHT22;5939;56.522;14.950;2022-12-24T06:09:50;0.10;99.90
11764;DHT22;5939;56.522;14.950;2022-12-24T06:12:16;0.10;99.90
11764;DHT22;5939;56.522;14.950;2022-12-24T06:14:42;0.10;99.90
11764;DHT22;5939;56.522;14.950;2022-12-24T06:17:07;0.10;99.90
11764;DHT22;5939;56.522;14.950;2022-12-24T06:19:33;0.10;99.90
11764;DHT22;5939;56.522;14.950;2022-12-24T06:21:58;0.00;99.90
11764;DHT22;5939;56.522;14.950;2022-12-24T06:24:24;0.00;99.90
11764;DHT22;5939;56.522;14.950;2022-12-24T06:26:50;0.00;99.90
11764;DHT22;5939;56.522;14.950;2022-12-24T06:29:15;0.00;99.90
11764;DHT22;5939;56.522;14.950;2022-12-24T06:31:41;0.00;99.90
11764;DHT22;5939;56.522;14.950;2022-12-24T06:34:06;0.00;99.90
11764;DHT22;5939;56.522;14.950;2022-12-24T06:36:32;0.00;99.90
11764;DHT22;5939;56.522;14.950;2022-12-24T06:38:58;-0.10;99.90
11764;DHT22;5939;56.522;14.950;2022-12-24T06:41:23;-0.10;99.90
11764;DHT22;5939;56.522;14.950;2022-12-24T06:43:50;-0.10;99.90
11764;DHT22;5939;56.522;14.950;2022-12-24T06:46:17;-0.10;99.90
11764;DHT22;5939;56.522;14.950;2022-12-24T06:48:44;-0.10;99.90
11764;DHT22;5939;56.522;14.950;2022-12-24T06:51:10;-0.10;99.90
11764;DHT22;5939;56.522;14.950;2022-12-24T06:53:36;-0.10;99.90
11764;DHT22;5939;56.522;14.950;2022-12-24T06:56:08;-0.20;99.90
11764;DHT22;5939;56.522;14.950;2022-12-24T06:58:35;-0.20;99.90
11764;DHT22;5939;56.522;14.950;2022-12-24T07:01:05;-0.20;99.90
11764;DHT22;5939;56.522;14.950;2022-12-24T07:03:31;-0.20;99.90
11764;DHT22;5939;56.522;14.950;2022-12-24T07:05:58;-0.20;99.90
11764;DHT22;5939;56.522;14.950;2022-12-24T07:08:25;-0.30;99.90
11764;DHT22;5939;56.522;14.950;2022-12-24T07:10:51;-0.20;99.90
11764;DHT22;5939;56.522;14.950;2022-12-24T07:13:17;-0.30;99.90
11764;DHT22;5939;56.522;14.950;2022-12-24T07:15:43;-0.30;99.90
11764;DHT22;5939;56.522;14.950;2022-12-24T07:18:10;-0.30;99.90
11764;DHT22;5939;56.522;14.950;2022-12-24T07:20:36;-0.30;99.90
11764;DHT22;5939;56.522;14.950;2022-12-24T07:23:02;-0.30;99.90
11764;DHT22;5939;56.522;14.950;2022-12-24T07:25:27;-0.30;99.90
11764;DHT22;5939;56.522;14.950;2022-12-24T07:27:53;-0.40;99.90
11764;DHT22;5939;56.522;14.950;2022-12-24T07:30:19;-0.40;99.90
11764;DHT22;5939;56.522;14.950;2022-12-24T07:32:44;-0.40;99.90
11764;DHT22;5939;56.522;14.950;2022-12-24T07:35:10;-0.40;99.90
11764;DHT22;5939;56.522;14.950;2022-12-24T07:37:36;-0.40;99.90
11764;DHT22;5939;56.522;14.950;2022-12-24T07:40:02;-0.40;99.90
11764;DHT22;5939;56.522;14.950;2022-12-24T07:42:30;-0.40;99.90
11764;DHT22;5939;56.522;14.950;2022-12-24T07:44:56;-0.40;99.90
11764;DHT22;5939;56.522;14.950;2022-12-24T07:47:22;-0.40;99.90
11764;DHT22;5939;56.522;14.950;2022-12-24T07:49:47;-0.40;99.90
11764;DHT22;5939;56.522;14.950;2022-12-24T07:52:13;-0.50;99.90
11764;DHT22;5939;56.522;14.950;2022-12-24T07:54:38;-0.50;99.90
11764;DHT22;5939;56.522;14.950;2022-12-24T07:57:04;-0.50;99.90
11764;DHT22;5939;56.522;14.950;2022-12-24T07:59:30;-0.50;99.90
11764;DHT22;5939;56.522;14.950;2022-12-24T08:01:55;-0.50;99.90
11764;DHT22;5939;56.522;14.950;2022-12-24T08:04:21;-0.50;99.90
11764;DHT22;5939;56.522;14.950;2022-12-24T08:06:46;-0.50;99.90
11764;DHT22;5939;56.522;14.950;2022-12-24T08:09:12;-0.50;99.90
11764;DHT22;5939;56.522;14.950;2022-12-24T08:11:39;-0.50;99.90
11764;DHT22;5939;56.522;14.950;2022-12-24T08:14:05;-0.60;99.90
11764;DHT22;5939;56.522;14.950;2022-12-24T08:16:30;-0.60;99.90
11764;DHT22;5939;56.522;14.950;2022-12-24T08:18:56;-0.60;99.90
11764;DHT22;5939;56.522;14.950;2022-12-24T08:21:22;-0.60;99.90
11764;DHT22;5939;56.522;14.950;2022-12-24T08:23:47;-0.60;99.90
11764;DHT22;5939;56.522;14.950;2022-12-24T08:26:13;-0.60;99.90
11764;DHT22;5939;56.522;14.950;2022-12-24T08:28:38;-0.60;99.90
11764;DHT22;5939;56.522;14.950;2022-12-24T08:31:05;-0.60;99.90
11764;DHT22;5939;56.522;14.950;2022-12-24T08:33:30;-0.60;99.90
11764;DHT22;5939;56.522;14.950;2022-12-24T08:35:56;-0.60;99.90
11764;DHT22;5939;56.522;14.950;2022-12-24T08:38:23;-0.60;99.90
11764;DHT22;5939;56.522;14.950;2022-12-24T08:40:49;-0.60;99.90
11764;DHT22;5939;56.522;14.950;2022-12-24T08:43:17;-0.60;99.90
11764;DHT22;5939;56.522;14.950;2022-12-24T08:45:43;-0.70;99.90
11764;DHT22;5939;56.522;14.950;2022-12-24T08:48:09;-0.70;99.90
11764;DHT22;5939;56.522;14.950;2022-12-24T08:50:36;-0.70;99.90
11764;DHT22;5939;56.522;14.950;2022-12-24T08:53:02;-0.70;99.90
11764;DHT22;5939;56.522;14.950;2022-12-24T08:55:28;-0.70;99.90
11764;DHT22;5939;56.522;14.950;2022-12-24T08:57:53;-0.70;99.90
11764;DHT22;5939;56.522;14.950;2022-12-24T09:00:19;-0.70;99.90
11764;DHT22;5939;56.522;14.950;2022-12-24T09:02:45;-0.70;99.90
11764;DHT22;5939;56.522;14.950;2022-12-24T09:05:11;-0.70;99.90
11764;DHT22;5939;56.522;14.950;2022-12-24T09:07:36;-0.70;99.90
11764;DHT22;5939;56.522;14.950;2022-12-24T09:10:03;-0.70;99.90
11764;DHT22;5939;56.522;14.950;2022-12-24T09:12:29;-0.70;99.90
11764;DHT22;5939;56.522;14.950;2022-12-24T09:14:54;-0.70;99.90
11764;DHT22;5939;56.522;14.950;2022-12-24T09:17:20;-0.70;99.90
11764;DHT22;5939;56.522;14.950;2022-12-24T09:19:46;-0.70;99.90
11764;DHT22;5939;56.522;14.950;2022-12-24T09:22:12;-0.70;99.90
11764;DHT22;5939;56.522;14.950;2022-12-24T09:24:38;-0.70;99.90
11764;DHT22;5939;56.522;14.950;2022-12-24T09:27:04;-0.70;99.90
11764;DHT22;5939;56.522;14.950;2022-12-24T09:29:30;-0.70;99.90
11764;DHT22;5939;56.522;14.950;2022-12-24T09:31:56;-0.80;99.90
11764;DHT22;5939;56.522;14.950;2022-12-24T09:34:23;-0.80;99.90
11764;DHT22;5939;56.522;14.950;2022-12-24T09:36:49;-0.80;99.90
11764;DHT22;5939;56.522;14.950;2022-12-24T09:39:16;-0.70;99.90
11764;DHT22;5939;56.522;14.950;2022-12-24T09:53:04;-0.80;99.90
11764;DHT22;5939;56.522;14.950;2022-12-24T09:55:39;-0.80;99.90
11764;DHT22;5939;56.522;14.950;2022-12-24T09:58:19;-0.80;99.90
11764;DHT22;5939;56.522;14.950;2022-12-24T10:00:47;-0.80;99.90
11764;DHT22;5939;56.522;14.950;2022-12-24T10:03:16;-0.80;99.90
11764;DHT22;5939;56.522;14.950;2022-12-24T10:06:00;-0.80;99.90
11764;DHT22;5939;56.522;14.950;2022-12-24T10:14:06;-0.70;99.90
11764;DHT22;5939;56.522;14.950;2022-12-24T10:27:29;-0.70;99.90
11764;DHT22;5939;56.522;14.950;2022-12-24T10:30:05;-0.70;99.90
11764;DHT22;5939;56.522;14.950;2022-12-24T10:32:32;-0.70;99.90
11764;DHT22;5939;56.522;14.950;2022-12-24T10:35:04;-0.70;99.90
11764;DHT22;5939;56.522;14.950;2022-12-24T10:37:31;-0.70;99.90
11764;DHT22;5939;56.522;14.950;2022-12-24T10:39:58;-0.70;99.90
11764;DHT22;5939;56.522;14.950;2022-12-24T10:42:31;-0.70;99.90
11764;DHT22;5939;56.522;14.950;2022-12-24T10:45:05;-0.70;99.90
11764;DHT22;5939;56.522;14.950;2022-12-24T10:47:33;-0.70;99.90
11764;DHT22;5939;56.522;14.950;2022-12-24T10:50:31;-0.70;99.90
11764;DHT22;5939;56.522;14.950;2022-12-24T10:53:45;-0.70;99.90
11764;DHT22;5939;56.522;14.950;2022-12-24T10:56:15;-0.60;99.90
11764;DHT22;5939;56.522;14.950;2022-12-24T10:58:54;-0.70;99.90
11764;DHT22;5939;56.522;14.950;2022-12-24T11:01:46;-0.70;99.90
11764;DHT22;5939;56.522;14.950;2022-12-24T11:04:26;-0.60;99.90
11764;DHT22;5939;56.522;14.950;2022-12-24T11:09:30;-0.60;99.90
11764;DHT22;5939;56.522;14.950;2022-12-24T11:11:57;-0.60;99.90
11764;DHT22;5939;56.522;14.950;2022-12-24T11:14:24;-0.60;99.90
11764;DHT22;5939;56.522;14.950;2022-12-24T11:16:55;-0.60;99.90
11764;DHT22;5939;56.522;14.950;2022-12-24T11:19:32;-0.60;99.90
11764;DHT22;5939;56.522;14.950;2022-12-24T11:22:04;-0.60;99.90
11764;DHT22;5939;56.522;14.950;2022-12-24T11:24:35;-0.60;99.90
11764;DHT22;5939;56.522;14.950;2022-12-24T11:27:41;-0.50;99.90
11764;DHT22;5939;56.522;14.950;2022-12-24T11:32:45;-0.50;99.90
11764;DHT22;5939;56.522;14.950;2022-12-24T11:35:22;-0.50;99.90
11764;DHT22;5939;56.522;14.950;2022-12-24T11:38:07;-0.50;99.90
11764;DHT22;5939;56.522;14.950;2022-12-24T11:40:36;-0.50;99.90
11764;DHT22;5939;56.522;14.950;2022-12-24T11:43:03;-0.50;99.90
11764;DHT22;5939;56.522;14.950;2022-12-24T11:45:31;-0.50;99.90
11764;DHT22;5939;56.522;14.950;2022-12-24T11:47:58;-0.40;99.90
11764;DHT22;5939;56.522;14.950;2022-12-24T11:50:32;-0.40;99.90
11764;DHT22;5939;56.522;14.950;2022-12-24T12:00:32;-0.40;99.90
11764;DHT22;5939;56.522;14.950;2022-12-24T12:03:00;-0.40;99.90
11764;DHT22;5939;56.522;14.950;2022-12-24T12:05:29;-0.30;99.90
11764;DHT22;5939;56.522;14.950;2022-12-24T12:08:07;-0.30;99.90
11764;DHT22;5939;56.522;14.950;2022-12-24T12:10:37;-0.40;99.90
11764;DHT22;5939;56.522;14.950;2022-12-24T12:13:08;-0.40;99.90
11764;DHT22;5939;56.522;14.950;2022-12-24T12:15:40;-0.30;99.90
11764;DHT22;5939;56.522;14.950;2022-12-24T12:18:14;-0.30;99.90
11764;DHT22;5939;56.522;14.950;2022-12-24T12:20:51;-0.30;99.90
11764;DHT22;5939;56.522;14.950;2022-12-24T12:23:31;-0.30;99.90
11764;DHT22;5939;56.522;14.950;2022-12-24T12:26:00;-0.30;99.90
11764;DHT22;5939;56.522;14.950;2022-12-24T12:31:35;-0.20;99.90
11764;DHT22;5939;56.522;14.950;2022-12-24T12:34:14;-0.20;99.90
11764;DHT22;5939;56.522;14.950;2022-12-24T12:39:09;-0.20;99.90
11764;DHT22;5939;56.522;14.950;2022-12-24T12:42:04;-0.20;99.90
11764;DHT22;5939;56.522;14.950;2022-12-24T12:47:38;-0.20;99.90
11764;DHT22;5939;56.522;14.950;2022-12-24T12:50:31;-0.20;99.90
11764;DHT22;5939;56.522;14.950;2022-12-24T12:53:27;-0.20;99.90
11764;DHT22;5939;56.522;14.950;2022-12-24T12:56:05;-0.10;99.90
11764;DHT22;5939;56.522;14.950;2022-12-24T12:58:48;-0.10;99.90
11764;DHT22;5939;56.522;14.950;2022-12-24T13:01:28;-0.10;99.90
11764;DHT22;5939;56.522;14.950;2022-12-24T13:04:18;-0.10;99.90
11764;DHT22;5939;56.522;14.950;2022-12-24T13:07:06;-0.10;99.90
11764;DHT22;5939;56.522;14.950;2022-12-24T13:09:47;0.00;99.90
11764;DHT22;5939;56.522;14.950;2022-12-24T13:20:47;0.00;99.90
11764;DHT22;5939;56.522;14.950;2022-12-24T13:23:19;0.00;99.90
11764;DHT22;5939;56.522;14.950;2022-12-24T13:25:48;0.00;99.90
11764;DHT22;5939;56.522;14.950;2022-12-24T13:46:54;0.10;99.90
11764;DHT22;5939;56.522;14.950;2022-12-24T13:51:50;0.10;99.90
11764;DHT22;5939;56.522;14.950;2022-12-24T13:54:20;0.20;99.90
11764;DHT22;5939;56.522;14.950;2022-12-24T13:56:47;0.10;99.90
11764;DHT22;5939;56.522;14.950;2022-12-24T13:59:55;0.10;99.90
11764;DHT22;5939;56.522;14.950;2022-12-24T14:02:03;0.20;99.90
11764;DHT22;5939;56.522;14.950;2022-12-24T14:04:33;0.20;99.90
11764;DHT22;5939;56.522;14.950;2022-12-24T14:07:01;0.20;99.90
11764;DHT22;5939;56.522;14.950;2022-12-24T14:09:28;0.20;99.90
11764;DHT22;5939;56.522;14.950;2022-12-24T14:14:38;0.20;99.90
11764;DHT22;5939;56.522;14.950;2022-12-24T14:17:24;0.30;99.90
11764;DHT22;5939;56.522;14.950;2022-12-24T14:19:58;0.20;99.90
11764;DHT22;5939;56.522;14.950;2022-12-24T14:22:32;0.30;99.90
11764;DHT22;5939;56.522;14.950;2022-12-24T14:25:08;0.30;99.90
11764;DHT22;5939;56.522;14.950;2022-12-24T14:27:41;0.30;99.90
11764;DHT22;5939;56.522;14.950;2022-12-24T14:30:22;0.30;99.90
11764;DHT22;5939;56.522;14.950;2022-12-24T14:32:49;0.30;99.90
11764;DHT22;5939;56.522;14.950;2022-12-24T14:35:18;0.30;99.90
11764;DHT22;5939;56.522;14.950;2022-12-24T14:38:11;0.30;99.90
11764;DHT22;5939;56.522;14.950;2022-12-24T14:43:47;0.30;99.90
11764;DHT22;5939;56.522;14.950;2022-12-24T14:46:28;0.30;99.90
11764;DHT22;5939;56.522;14.950;2022-12-24T14:49:24;0.30;99.90
11764;DHT22;5939;56.522;14.950;2022-12-24T14:52:14;0.30;99.90
11764;DHT22;5939;56.522;14.950;2022-12-24T14:54:43;0.30;99.90
11764;DHT22;5939;56.522;14.950;2022-12-24T14:59:44;0.40;99.90
11764;DHT22;5939;56.522;14.950;2022-12-24T15:05:19;0.30;99.90
11764;DHT22;5939;56.522;14.950;2022-12-24T15:07:58;0.30;99.90
11764;DHT22;5939;56.522;14.950;2022-12-24T15:12:56;0.40;99.90
11764;DHT22;5939;56.522;14.950;2022-12-24T15:15:23;0.40;99.90
11764;DHT22;5939;56.522;14.950;2022-12-24T15:17:49;0.40;99.90
11764;DHT22;5939;56.522;14.950;2022-12-24T15:20:17;0.40;99.90
11764;DHT22;5939;56.522;14.950;2022-12-24T15:22:45;0.40;99.90
11764;DHT22;5939;56.522;14.950;2022-12-24T15:25:20;0.40;99.90
11764;DHT22;5939;56.522;14.950;2022-12-24T15:27:46;0.40;99.90
11764;DHT22;5939;56.522;14.950;2022-12-24T15:30:32;0.40;99.90
11764;DHT22;5939;56.522;14.950;2022-12-24T15:32:58;0.50;99.90
11764;DHT22;5939;56.522;14.950;2022-12-24T15:35:53;0.40;99.90
11764;DHT22;5939;56.522;14.950;2022-12-24T15:38:29;0.40;99.90
11764;DHT22;5939;56.522;14.950;2022-12-24T15:40:55;0.50;99.90
11764;DHT22;5939;56.522;14.950;2022-12-24T15:43:22;0.50;99.90
11764;DHT22;5939;56.522;14.950;2022-12-24T15:45:48;0.50;99.90
11764;DHT22;5939;56.522;14.950;2022-12-24T15:48:26;0.50;99.90
11764;DHT22;5939;56.522;14.950;2022-12-24T15:51:01;0.50;99.90
11764;DHT22;5939;56.522;14.950;2022-12-24T15:53:40;0.50;99.90
11764;DHT22;5939;56.522;14.950;2022-12-24T15:56:31;0.50;99.90
11764;DHT22;5939;56.522;14.950;2022-12-24T16:01:43;0.50;99.90
11764;DHT22;5939;56.522;14.950;2022-12-24T16:04:24;0.50;99.90
11764;DHT22;5939;56.522;14.950;2022-12-24T16:07:10;0.50;99.90
11764;DHT22;5939;56.522;14.950;2022-12-24T16:09:48;0.50;99.90
11764;DHT22;5939;56.522;14.950;2022-12-24T16:12:22;0.50;99.90
11764;DHT22;5939;56.522;14.950;2022-12-24T16:14:56;0.50;99.90
11764;DHT22;5939;56.522;14.950;2022-12-24T16:17:30;0.50;99.90
11764;DHT22;5939;56.522;14.950;2022-12-24T16:20:04;0.50;99.90
11764;DHT22;5939;56.522;14.950;2022-12-24T16:22:31;0.50;99.90
11764;DHT22;5939;56.522;14.950;2022-12-24T16:27:45;0.50;99.90
11764;DHT22;5939;56.522;14.950;2022-12-24T16:30:11;0.50;99.90
11764;DHT22;5939;56.522;14.950;2022-12-24T16:32:38;0.50;99.90
11764;DHT22;5939;56.522;14.950;2022-12-24T16:35:06;0.50;99.90
11764;DHT22;5939;56.522;14.950;2022-12-24T16:37:32;0.60;99.90
11764;DHT22;5939;56.522;14.950;2022-12-24T16:39:59;0.60;99.90
11764;DHT22;5939;56.522;14.950;2022-12-24T16:42:25;0.60;99.90
11764;DHT22;5939;56.522;14.950;2022-12-24T16:45:09;0.60;99.90
11764;DHT22;5939;56.522;14.950;2022-12-24T16:47:35;0.60;99.90
11764;DHT22;5939;56.522;14.950;2022-12-24T16:50:03;0.60;99.90
11764;DHT22;5939;56.522;14.950;2022-12-24T16:52:30;0.60;99.90
11764;DHT22;5939;56.522;14.950;2022-12-24T16:54:58;0.60;99.90
11764;DHT22;5939;56.522;14.950;2022-12-24T16:57:25;0.60;99.90
11764;DHT22;5939;56.522;14.950;2022-12-24T16:59:51;0.60;99.90
11764;DHT22;5939;56.522;14.950;2022-12-24T17:02:19;0.60;99.90
11764;DHT22;5939;56.522;14.950;2022-12-24T17:04:46;0.60;99.90
11764;DHT22;5939;56.522;14.950;2022-12-24T17:07:13;0.60;99.90
11764;DHT22;5939;56.522;14.950;2022-12-24T17:09:39;0.60;99.90
11764;DHT22;5939;56.522;14.950;2022-12-24T17:12:05;0.60;99.90
11764;DHT22;5939;56.522;14.950;2022-12-24T17:14:31;0.60;99.90
11764;DHT22;5939;56.522;14.950;2022-12-24T17:16:56;0.60;99.90
11764;DHT22;5939;56.522;14.950;2022-12-24T17:19:22;0.60;99.90
11764;DHT22;5939;56.522;14.950;2022-12-24T17:21:47;0.60;99.90
11764;DHT22;5939;56.522;14.950;2022-12-24T17:24:13;0.60;99.90
11764;DHT22;5939;56.522;14.950;2022-12-24T17:26:39;0.60;99.90
11764;DHT22;5939;56.522;14.950;2022-12-24T17:29:06;0.60;99.90
11764;DHT22;5939;56.522;14.950;2022-12-24T17:31:32;0.70;99.90
11764;DHT22;5939;56.522;14.950;2022-12-24T17:33:58;0.70;99.90
11764;DHT22;5939;56.522;14.950;2022-12-24T17:36:24;0.60;99.90
11764;DHT22;5939;56.522;14.950;2022-12-24T17:38:50;0.70;99.90
11764;DHT22;5939;56.522;14.950;2022-12-24T17:41:18;0.70;99.90
11764;DHT22;5939;56.522;14.950;2022-12-24T17:43:44;0.70;99.90
11764;DHT22;5939;56.522;14.950;2022-12-24T17:46:12;0.70;99.90
11764;DHT22;5939;56.522;14.950;2022-12-24T17:48:39;0.70;99.90
11764;DHT22;5939;56.522;14.950;2022-12-24T17:51:17;0.70;99.90
11764;DHT22;5939;56.522;14.950;2022-12-24T17:53:43;0.70;99.90